Soaring Guidance
Issued by NWS Reno, NV

Home | Current Version | Previous Version | Text Only | Print | Product List | Glossary On
Versions: 1 2 3 4 5 6 7 8
000
UXUS97 KREV 291346
SRGREV

SOARING FORECAST
NATIONAL WEATHER SERVICE - RENO NV
700 AM PDT SUN MAY 29 2016

THIS SOARING FORECAST IS FOR THE EASTERN SIERRA AND WESTERN NEVADA
WITH SPECIFIC INDICES FOR THE GREATER RENO AREA.

THIS FORECAST IS PREPARED DAILY BY 700 AM AND IS NOT UPDATED.

FOR CURRENT FLIGHT CONDITIONS...FORECASTS...AND ADVISORIES...ACCESS
YOUR LOCAL BRIEFING OUTLET OR FLIGHT SERVICE STATION.

*******************************************************************
FORECASTED LOCAL INDICES FOR RENO:        TODAY     YESTERDAY
FORECASTED MAX TEMP AT RENO (DEG F).....     83          79
FORECASTED TRIGGER TEMPERATURE (DEG F)..     67          60
   EXCEEDED YESTERDAY BY 955 AM PDT
FORECASTED MAXIMUM ALTITUDE (FT MSL)....  16800       16300
FORECASTED SOARING INDEX (FPM)..........   1044         939
FORECASTED K-INDEX.........VALID 18Z....     22          17
FORECASTED K-INDEX.........VALID 00Z....     27          21
FORECASTED LIFTED INDEX....VALID 18Z....      5           7
FORECASTED LIFTED INDEX....VALID 00Z....      3           4

AFTERNOON WINDS ALOFT FORECAST
MSL (FT) WIND/TEMP
9000  2910/+11
10000 2909/+08
12000 3007/+02
14000 3108/-03
16000 3209/-08
18000 3411/-13
24000 3423/-26
30000 3321/-44
34000 3019/-54
39000 2818/-62

SLIDE MOUNTAIN DATA:
     DATE       TIME     TEMP  DEWPT   RH         WIND (MPH)
                        (F)   (F)           | DIR  SPEED GUST
2016-05-29    05:20      42    27     57    | 000    0    0
2016-05-29    05:00      42    27     58    | 066    0    0
2016-05-29    04:50      43    26     54    | 000    0    0
2016-05-29    04:30      43    26     53    | 000    0    0

RENO TAF FORECAST:
KRNO 291126Z 2912/3012 VRB05KT P6SM BKN200
     FM292200 29010G20KT P6SM FEW060 SCT250
     FM300400 30005KT P6SM SCT200

CARSON CITY TAF FORECAST:
KCXP 291126Z 2912/3012 VRB03KT P6SM BKN250
     FM292200 27010KT P6SM FEW050 SCT250
     FM300300 VRB03KT P6SM SCT250

OUTLOOK FOR THE RENO-CARSON CITY-MINDEN AREA:
.MEMORIAL DAY...SUNNY. HIGHS 80 TO 85. LIGHT WINDS.

SUNRISE AND SUNSET
MAY 29 2016...........SUNRISE   535 AM PDT   SUNSET   819 PM PDT
MAY 30 2016...........SUNRISE   535 AM PDT   SUNSET   819 PM PDT



USA.gov is the U.S. government's official web portal to all federal, state and local government web resources and services.